Etusivu
METAR-TAF:

METAR-TAF

Lentoasemat :

Logroño, Espanja

Leveyspiiri: 42-27N, Pituuspiiri: 002-20W, korkeus merenpinnasta: 353 m

Tämänhetkinen sää

Tämä raportti tehtiin 29 minuuttia sitten, kello 19.00 UTC
Tuuli 5 kn lännestä
Lämpötila 9°C
Kosteus 87%
Ilmanpaine 1009 hPa
Näkyvyys 10 km tai enemmän
Hajanaisia pilviä 4800 ft:n korkeudessa
Hajonneita pilviä 6000 ft:n korkeudessa
heikkoa sadetta

METAR: LELO 121900Z 26005KT 9999 -RA SCT048 BKN060 09/07 Q1009

Aika: 20:29 (19:29 UTC)

Sääennuste

Tämä raportti tehtiin 2 tuntia ja 29 minuuttia sitten, kello 17.00 UTC
Ennuste voimassa 12. päivästä klo 18 UTC - 13. päivään klo 03 UTC
Tuuli 4 kn eri suunnista
Näkyvyys 10 km tai enemmän
Hajanaisia pilviä 4000 ft:n korkeudessa
Todennäköisyys 40% :
Ajoittain
12. päivästä klo 18 UTC - 13. päivään klo 03 UTC
Näkyvyys: 3000 m
sadetta

TAF: LELO 121700Z 1218/1303 VRB04KT 9999 SCT040 PROB40 TEMPO 1218/1303 3000 RA

Säähavainnot ja -ennusteet yli 4000 lentoasemalta (METAR- ja TAF-raportit).

Käytössä olevat sääasemat on merkitty karttaan keltaisilla ja punaisilla pisteillä.

Aseta hiiri pisteen päälle nähdäksesi sääaseman nimen.

Klikkaa sitten nähdäksesi säähavainnot ja -ennusteet.

Kartan vaihtaminen: klikkaa mustalla rastilla varustettuja vihreitä pisteitä, niin voit zoomata sisään; viivalla varustettua vihreää pistettä, niin voit zoomata ulos tai vihreitä nuolia, niin pääset viereisille kartoille.


METAR-TAF: